Time;durP1;ratioP1;P1;durP2;ratioP2;P2;SDS_P1;SDS_P2;PMS_P1;PMS_P2;Temp;Humidity;BMP_temperature;BMP_pressure;BME280_temperature;BME280_humidity;BME280_pressure;Samples;Min_cycle;Max_cycle;Signal;HPM_P1;HPM_P2
2020/12/30 00:02:25;;;;;;;11.45;5.50;;;;;;;25.88;30.30;94815.91;5012965;28;20422;-43
2020/12/30 00:04:51;;;;;;;12.40;5.93;;;;;;;25.88;30.40;94818.53;5019628;28;20041;-43
2020/12/30 00:07:16;;;;;;;10.80;5.05;;;;;;;25.89;30.34;94817.59;5008602;28;20052;-41
2020/12/30 00:09:41;;;;;;;10.35;5.50;;;;;;;25.87;30.30;94820.34;5021366;28;20041;-43
2020/12/30 00:12:07;;;;;;;13.35;5.60;;;;;;;25.88;30.34;94821.16;5022973;28;20499;-44
2020/12/30 00:14:32;;;;;;;12.68;5.63;;;;;;;25.88;30.32;94821.16;5015670;28;20034;-38
2020/12/30 00:16:58;;;;;;;12.23;5.65;;;;;;;25.87;30.30;94822.13;5014438;28;20459;-45
2020/12/30 00:19:23;;;;;;;12.77;5.95;;;;;;;25.87;30.27;94824.75;5027323;28;20041;-37
2020/12/30 00:21:51;;;;;;;12.20;5.78;;;;;;;25.86;30.36;94825.72;5027810;28;20123;-44
2020/12/30 00:24:17;;;;;;;9.52;5.22;;;;;;;25.86;30.33;94823.09;5018982;28;20060;-44
2020/12/30 00:26:43;;;;;;;12.45;5.28;;;;;;;25.88;30.38;94829.03;5027663;28;20436;-44
2020/12/30 00:29:08;;;;;;;9.68;4.43;;;;;;;25.87;30.53;94827.38;5023178;28;20057;-44
2020/12/30 00:31:34;;;;;;;10.00;4.80;;;;;;;25.88;30.26;94831.66;5020050;28;20043;-44
2020/12/30 00:33:59;;;;;;;10.02;4.55;;;;;;;25.87;30.48;94835.25;5022020;28;20611;-36
2020/12/30 00:36:26;;;;;;;10.40;5.32;;;;;;;25.86;30.34;94833.59;5024172;28;20037;-39
2020/12/30 00:38:52;;;;;;;10.68;4.80;;;;;;;25.86;30.34;94833.59;5022620;28;20138;-43
2020/12/30 00:41:18;;;;;;;10.75;5.10;;;;;;;25.86;30.29;94833.59;5022416;28;20483;-44
2020/12/30 00:43:44;;;;;;;10.98;4.95;;;;;;;25.83;30.33;94835.50;5018046;28;20096;-41
2020/12/30 00:46:18;;;;;;;9.35;4.47;;;;;;;25.83;30.47;94838.13;5023103;28;20034;-39
2020/12/30 00:48:44;;;;;;;8.25;4.35;;;;;;;25.83;30.44;94842.56;5024206;28;20037;-43
2020/12/30 00:51:16;;;;;;;9.05;4.63;;;;;;;25.81;30.38;94839.22;5018601;28;20416;-39
2020/12/30 00:53:42;;;;;;;8.55;4.15;;;;;;;25.80;30.44;94835.78;5022651;28;20769;-43
2020/12/30 00:56:10;;;;;;;8.40;4.38;;;;;;;25.81;30.27;94842.69;5021837;28;20041;-42
2020/12/30 00:58:36;;;;;;;7.85;4.45;;;;;;;25.81;30.31;94847.94;5014232;28;20038;-42
2020/12/30 01:01:08;;;;;;;8.77;4.00;;;;;;;25.80;30.37;94846.25;5022792;28;20124;-40
2020/12/30 01:03:34;;;;;;;9.25;4.30;;;;;;;25.80;30.30;94851.50;5035626;28;20075;-43
2020/12/30 01:06:00;;;;;;;8.63;4.18;;;;;;;25.81;30.48;94857.56;5035956;28;20418;-41
2020/12/30 01:08:26;;;;;;;14.52;4.15;;;;;;;25.79;30.31;94855.09;5040178;28;20049;-41
2020/12/30 01:10:52;;;;;;;11.23;3.53;;;;;;;25.82;29.72;94859.25;5033873;28;20040;-43
2020/12/30 01:13:17;;;;;;;8.55;4.05;;;;;;;25.79;30.17;94862.97;5034741;28;20040;-45
2020/12/30 01:15:43;;;;;;;10.13;4.13;;;;;;;25.78;30.33;94866.53;5036400;28;20045;-45
2020/12/30 01:18:09;;;;;;;12.68;4.07;;;;;;;25.76;30.43;94865.84;5045565;28;20041;-44
2020/12/30 01:20:34;;;;;;;10.13;3.92;;;;;;;25.77;30.31;94864.03;5042300;28;20036;-39
2020/12/30 01:23:00;;;;;;;7.57;3.78;;;;;;;25.76;30.43;94873.72;5035570;28;20681;-43
2020/12/30 01:25:26;;;;;;;9.93;4.20;;;;;;;25.75;30.52;94858.94;5042476;28;20429;-39
2020/12/30 01:27:52;;;;;;;8.60;3.60;;;;;;;25.74;30.49;94862.50;5038708;28;20028;-43
2020/12/30 01:30:18;;;;;;;6.85;3.75;;;;;;;25.74;30.53;94870.38;5040387;28;20523;-42
2020/12/30 01:32:43;;;;;;;7.25;3.55;;;;;;;25.74;30.36;94878.25;5039673;28;20047;-43
2020/12/30 01:35:09;;;;;;;7.68;3.80;;;;;;;25.74;30.47;94878.25;5046146;28;20106;-42
2020/12/30 01:37:36;;;;;;;7.18;3.72;;;;;;;25.75;30.52;94874.69;5045301;28;20113;-43
2020/12/30 01:40:02;;;;;;;6.93;3.35;;;;;;;25.73;30.44;94871.34;5042471;28;20048;-45
2020/12/30 01:42:27;;;;;;;5.38;3.35;;;;;;;25.72;30.46;94869.69;5045844;28;20036;-42
2020/12/30 01:44:53;;;;;;;5.95;3.30;;;;;;;25.70;30.61;94868.97;5031088;28;20044;-42
2020/12/30 01:47:19;;;;;;;10.57;3.47;;;;;;;25.73;30.36;94876.59;5032648;28;20126;-39
2020/12/30 01:49:45;;;;;;;7.45;3.88;;;;;;;25.70;30.35;94869.81;5042351;28;20656;-39
2020/12/30 01:52:10;;;;;;;6.30;3.28;;;;;;;25.72;30.34;94874.09;5011833;28;20044;-42
2020/12/30 01:54:35;;;;;;;6.65;3.42;;;;;;;25.68;30.59;94873.53;5045152;28;20565;-44
2020/12/30 01:57:03;;;;;;;6.43;3.38;;;;;;;25.72;30.29;94874.94;5040095;28;20072;-42
2020/12/30 01:59:29;;;;;;;6.70;3.40;;;;;;;25.70;30.52;94876.84;5041294;28;20030;-43
2020/12/30 02:02:01;;;;;;;7.55;3.10;;;;;;;25.73;30.35;94881.03;5038781;28;20029;-38
2020/12/30 02:04:50;;;;;;;6.60;3.42;;;;;;;25.73;30.26;94891.53;5040164;28;20045;-40
2020/12/30 02:07:16;;;;;;;4.68;2.90;;;;;;;25.69;30.48;94881.28;5040017;28;20768;-45
2020/12/30 02:09:42;;;;;;;5.35;3.00;;;;;;;25.71;30.48;94889.00;5029517;28;20029;-41
2020/12/30 02:12:09;;;;;;;6.88;3.28;;;;;;;25.72;30.30;94890.66;5034578;28;20040;-41
2020/12/30 02:14:35;;;;;;;5.75;3.22;;;;;;;25.74;30.42;94899.22;5045786;28;20392;-42
2020/12/30 02:17:00;;;;;;;5.30;2.80;;;;;;;25.76;30.42;94901.72;5037938;28;20040;-37
2020/12/30 02:19:26;;;;;;;5.65;3.03;;;;;;;25.75;30.46;94897.44;5038261;28;20047;-44
2020/12/30 02:21:55;;;;;;;4.63;2.85;;;;;;;25.75;30.41;94905.31;5038231;28;20656;-40
2020/12/30 02:24:33;;;;;;;4.13;2.58;;;;;;;25.75;30.32;94898.28;5038078;28;20047;-36
2020/12/30 02:26:59;;;;;;;7.15;3.28;;;;;;;25.74;30.26;94901.84;5036092;28;20060;-43
2020/12/30 02:29:25;;;;;;;5.07;3.10;;;;;;;25.73;30.54;94905.44;5036317;28;20047;-42
2020/12/30 02:31:51;;;;;;;5.63;2.85;;;;;;;25.73;30.29;94908.06;5036011;28;20037;-44
2020/12/30 02:34:17;;;;;;;7.30;3.03;;;;;;;25.74;30.25;94909.72;5043662;28;20111;-42
2020/12/30 02:36:43;;;;;;;5.70;2.95;;;;;;;25.73;30.50;94907.25;5044868;28;20745;-42
2020/12/30 02:39:08;;;;;;;4.90;2.88;;;;;;;25.72;30.44;94909.03;5033615;28;20032;-39
2020/12/30 02:41:34;;;;;;;5.25;2.92;;;;;;;25.71;30.53;94910.00;5046784;28;20041;-39
2020/12/30 02:44:04;;;;;;;4.50;2.70;;;;;;;25.72;30.37;94908.19;5041146;28;20673;-40
2020/12/30 02:46:29;;;;;;;4.57;2.30;;;;;;;25.71;30.46;94912.63;5021969;28;20033;-42
2020/12/30 02:48:54;;;;;;;4.65;2.72;;;;;;;25.72;30.42;94909.03;5026357;28;20101;-43
2020/12/30 02:51:20;;;;;;;5.78;2.65;;;;;;;25.70;30.42;94909.16;5040685;28;20880;-43
2020/12/30 02:53:45;;;;;;;4.88;2.45;;;;;;;25.72;30.52;94906.41;5038652;28;20072;-43
2020/12/30 02:56:11;;;;;;;5.65;3.03;;;;;;;25.71;30.42;94912.63;5042030;28;20039;-43
2020/12/30 02:58:37;;;;;;;4.18;2.30;;;;;;;25.71;30.46;94912.63;5039217;28;20071;-38
2020/12/30 03:01:08;;;;;;;5.43;2.47;;;;;;;25.69;30.50;94911.91;5034272;28;20546;-43
2020/12/30 03:03:34;;;;;;;5.05;2.50;;;;;;;25.69;30.36;94912.75;5035382;28;20086;-42
2020/12/30 03:06:00;;;;;;;4.07;2.63;;;;;;;25.69;30.59;94911.91;5030298;28;20044;-40
2020/12/30 03:08:25;;;;;;;4.82;2.45;;;;;;;25.69;30.62;94914.53;5043371;28;20049;-36
2020/12/30 03:10:51;;;;;;;4.40;2.50;;;;;;;25.69;30.52;94909.28;5038511;28;20425;-39
2020/12/30 03:13:16;;;;;;;6.72;2.30;;;;;;;25.70;30.49;94913.56;5040359;28;20052;-40
2020/12/30 03:15:42;;;;;;;4.63;2.42;;;;;;;25.69;30.33;94915.38;5044100;28;20039;-42
2020/12/30 03:18:07;;;;;;;5.18;2.30;;;;;;;25.69;30.57;94917.16;5041851;28;20049;-43
2020/12/30 03:20:33;;;;;;;3.63;2.30;;;;;;;25.69;30.52;94911.91;5042339;28;20040;-39
2020/12/30 03:22:58;;;;;;;4.07;2.20;;;;;;;25.67;30.51;94919.91;5043513;28;20112;-41
2020/12/30 03:25:24;;;;;;;4.38;2.30;;;;;;;25.68;30.41;94926.00;5039442;28;20099;-39
2020/12/30 03:27:49;;;;;;;4.30;2.20;;;;;;;25.68;30.39;94931.22;5041149;28;20043;-43
2020/12/30 03:30:15;;;;;;;3.97;2.50;;;;;;;25.66;30.51;94928.72;5044550;28;20048;-42
2020/12/30 03:32:41;;;;;;;4.07;2.10;;;;;;;25.68;30.46;94931.22;5038817;28;20032;-39
2020/12/30 03:35:07;;;;;;;5.25;2.38;;;;;;;25.67;30.59;94934.81;5038524;28;20043;-41
2020/12/30 03:37:33;;;;;;;3.30;2.05;;;;;;;25.67;30.61;94937.44;5047079;28;20044;-39
2020/12/30 03:39:59;;;;;;;5.90;2.03;;;;;;;25.67;30.60;94940.06;5039288;28;20064;-40
2020/12/30 03:42:25;;;;;;;3.85;2.22;;;;;;;25.67;30.65;94937.44;5031769;28;20162;-39
2020/12/30 03:44:51;;;;;;;4.13;1.98;;;;;;;25.64;30.60;94933.28;5046001;28;20052;-42
2020/12/30 03:47:17;;;;;;;3.05;2.03;;;;;;;25.67;30.37;94935.63;5047587;28;20045;-40
2020/12/30 03:49:43;;;;;;;4.22;1.88;;;;;;;25.67;30.50;94924.31;5041088;28;20035;-40
2020/12/30 03:52:09;;;;;;;3.60;2.10;;;;;;;25.67;30.48;94925.16;5043546;28;20423;-41
2020/12/30 03:54:34;;;;;;;2.92;2.00;;;;;;;25.68;30.43;94928.59;5045699;28;20053;-43
2020/12/30 03:57:00;;;;;;;5.22;2.30;;;;;;;25.67;30.41;94924.31;5039458;28;20052;-43
2020/12/30 03:59:25;;;;;;;4.75;2.22;;;;;;;25.66;30.53;94933.97;5036155;28;20029;-40
2020/12/30 04:01:50;;;;;;;3.17;1.80;;;;;;;25.64;30.54;94930.66;5031712;28;20458;-42
2020/12/30 04:04:16;;;;;;;4.07;2.22;;;;;;;25.64;30.51;94935.06;5037101;28;20049;-43
2020/12/30 04:06:42;;;;;;;3.33;1.85;;;;;;;25.63;30.63;94930.78;5029444;28;20118;-42
2020/12/30 04:09:08;;;;;;;4.72;1.98;;;;;;;25.63;30.54;94931.59;5035504;28;20037;-39
2020/12/30 04:11:34;;;;;;;2.53;1.80;;;;;;;25.62;30.59;94927.31;5040865;28;20552;-43
2020/12/30 04:13:59;;;;;;;3.08;1.73;;;;;;;25.64;30.53;94919.31;5045412;28;21590;-40
2020/12/30 04:16:26;;;;;;;5.05;1.67;;;;;;;25.64;30.61;94935.06;5034596;28;20045;-43
2020/12/30 04:18:51;;;;;;;2.50;1.60;;;;;;;25.62;30.55;94931.75;5043476;28;20126;-38
2020/12/30 04:21:23;;;;;;;3.38;1.60;;;;;;;25.64;30.69;94940.31;5050519;28;20044;-40
2020/12/30 04:23:52;;;;;;;2.60;1.58;;;;;;;25.63;30.53;94936.03;5047223;28;20043;-39
2020/12/30 04:26:18;;;;;;;2.83;1.65;;;;;;;25.65;30.61;94950.69;5039336;28;20120;-43
2020/12/30 04:28:44;;;;;;;2.88;1.63;;;;;;;25.64;30.42;94951.66;5044625;28;20558;-43
2020/12/30 04:31:10;;;;;;;4.70;1.70;;;;;;;25.63;30.52;94943.91;5036018;28;20089;-41
2020/12/30 04:33:37;;;;;;;3.33;1.60;;;;;;;25.64;30.50;94950.81;5035764;28;20131;-40
2020/12/30 04:36:03;;;;;;;4.13;1.73;;;;;;;25.62;30.42;94947.50;5044463;28;20032;-42
2020/12/30 04:38:29;;;;;;;2.30;1.50;;;;;;;25.64;30.51;94953.44;5029181;28;20037;-41
2020/12/30 04:40:58;;;;;;;2.58;1.60;;;;;;;25.65;30.60;94958.56;5039862;28;20048;-45
2020/12/30 04:43:24;;;;;;;2.90;1.70;;;;;;;25.65;30.40;94957.72;5042415;28;20098;-43
2020/12/30 04:45:52;;;;;;;2.70;1.33;;;;;;;25.64;30.46;94961.28;5045165;28;20044;-37
2020/12/30 04:48:17;;;;;;;2.70;1.50;;;;;;;25.65;30.50;94968.19;5038150;28;20589;-39
2020/12/30 04:50:43;;;;;;;2.08;1.35;;;;;;;25.65;30.52;94965.56;5019023;28;20037;-44
2020/12/30 04:53:09;;;;;;;2.20;1.40;;;;;;;25.67;30.44;94963.69;5046141;28;20041;-44
2020/12/30 04:55:34;;;;;;;2.28;1.33;;;;;;;25.66;30.36;94969.88;5042646;28;20439;-40
2020/12/30 04:58:06;;;;;;;1.85;1.35;;;;;;;25.60;30.54;94965.97;5025714;28;20045;-42
2020/12/30 05:00:37;;;;;;;2.22;1.48;;;;;;;25.59;30.50;94968.72;5030652;28;20128;-39
2020/12/30 05:03:07;;;;;;;3.88;1.40;;;;;;;25.60;30.49;94965.13;5035818;28;20029;-42
2020/12/30 05:05:33;;;;;;;4.07;1.63;;;;;;;25.57;30.59;94967.06;5042405;28;20076;-42
2020/12/30 05:07:59;;;;;;;2.80;1.67;;;;;;;25.58;30.54;94965.25;5041234;28;20530;-43
2020/12/30 05:10:24;;;;;;;1.73;1.20;;;;;;;25.59;30.54;94973.97;5040439;28;20033;-41
2020/12/30 05:12:53;;;;;;;4.10;1.20;;;;;;;25.60;30.63;94970.38;5034029;28;20033;-42
2020/12/30 05:15:18;;;;;;;1.67;1.30;;;;;;;25.60;30.48;94973.00;5042314;28;20787;-41
2020/12/30 05:17:43;;;;;;;3.72;1.50;;;;;;;25.62;30.59;94971.09;5041127;28;20037;-41
2020/12/30 05:20:10;;;;;;;2.03;1.20;;;;;;;25.63;30.45;94976.19;5039054;28;20044;-43
2020/12/30 05:22:35;;;;;;;1.52;1.35;;;;;;;25.62;30.36;94978.97;5032098;28;20069;-42
2020/12/30 05:25:05;;;;;;;1.52;1.08;;;;;;;25.63;30.49;94980.63;5036789;28;20040;-40
2020/12/30 05:27:30;;;;;;;2.08;1.35;;;;;;;25.62;30.43;94978.97;5032864;28;20043;-43
2020/12/30 05:29:56;;;;;;;2.22;1.30;;;;;;;25.64;30.29;94990.16;5032670;28;20045;-44
2020/12/30 05:32:21;;;;;;;1.52;1.10;;;;;;;25.63;30.45;94991.13;5021928;28;20037;-40
2020/12/30 05:34:47;;;;;;;3.10;1.45;;;;;;;25.65;30.45;94991.81;5041901;28;20710;-41
2020/12/30 05:37:14;;;;;;;2.55;1.27;;;;;;;25.64;30.28;94991.00;5037903;28;20072;-40
2020/12/30 05:39:40;;;;;;;1.63;1.20;;;;;;;25.67;30.42;94995.16;5034791;28;20599;-41
2020/12/30 05:42:15;;;;;;;1.75;1.00;;;;;;;25.66;30.38;94985.63;5042614;28;20037;-44
2020/12/30 05:44:41;;;;;;;3.22;1.40;;;;;;;25.67;30.52;94997.78;5041043;28;20051;-43
2020/12/30 05:47:26;;;;;;;1.70;1.00;;;;;;;25.67;30.19;94995.16;5034046;28;20041;-43
2020/12/30 05:49:53;;;;;;;2.13;1.25;;;;;;;25.68;30.48;94996.81;5036214;28;20017;-41
2020/12/30 05:52:23;;;;;;;1.90;1.10;;;;;;;25.68;30.38;94999.44;5038022;28;20040;-42
2020/12/30 05:55:01;;;;;;;2.00;1.13;;;;;;;25.70;30.48;95002.75;5042455;28;20040;-42
2020/12/30 05:57:31;;;;;;;1.73;1.02;;;;;;;25.71;30.44;95009.69;5043423;28;20121;-39
2020/12/30 05:59:58;;;;;;;2.10;1.40;;;;;;;25.72;30.29;95011.34;5037027;28;20453;-44
2020/12/30 06:02:28;;;;;;;2.92;1.23;;;;;;;25.70;30.30;95013.25;5038435;28;20040;-40
2020/12/30 06:04:55;;;;;;;2.35;1.40;;;;;;;25.71;30.31;95020.19;5035297;28;20024;-45
2020/12/30 06:07:21;;;;;;;2.63;1.23;;;;;;;25.71;30.40;95020.19;5028259;28;20041;-43
2020/12/30 06:09:52;;;;;;;2.17;1.13;;;;;;;25.69;30.38;95016.84;5038746;28;20120;-41
2020/12/30 06:12:21;;;;;;;;;;;;;;;25.74;30.27;95029.59;5039156;28;20047;-41
2020/12/30 06:14:48;;;;;;;1.85;1.20;;;;;;;25.61;30.53;95011.38;5039144;28;19920;-45
2020/12/30 06:17:14;;;;;;;1.85;1.10;;;;;;;25.77;30.34;95032.78;5029674;28;20044;-44
2020/12/30 06:19:39;;;;;;;2.10;1.10;;;;;;;25.77;30.46;95035.41;5010449;28;20056;-39
2020/12/30 06:22:04;;;;;;;1.77;1.10;;;;;;;25.78;30.34;95036.25;5015630;28;20424;-40
2020/12/30 06:24:30;;;;;;;2.15;1.35;;;;;;;25.76;30.27;95036.38;5024799;28;20041;-41
2020/12/30 06:26:58;;;;;;;2.53;1.15;;;;;;;25.77;30.31;95035.41;5038884;28;20094;-42
2020/12/30 06:29:23;;;;;;;1.35;1.05;;;;;;;25.77;30.32;95040.66;5021112;28;20049;-45
2020/12/30 06:31:49;;;;;;;1.95;1.38;;;;;;;25.76;30.22;95044.25;5024794;28;20056;-44
2020/12/30 06:34:15;;;;;;;1.63;1.13;;;;;;;25.77;30.48;95045.06;5032161;28;20540;-41
2020/12/30 06:36:41;;;;;;;1.55;0.93;;;;;;;25.78;30.39;95058.06;5042794;28;20056;-42
2020/12/30 06:39:20;;;;;;;2.60;1.13;;;;;;;25.78;30.25;95063.31;5039856;28;20033;-43
2020/12/30 06:41:54;;;;;;;2.88;1.08;;;;;;;25.77;30.38;95069.53;5041843;28;20040;-42
2020/12/30 06:44:43;;;;;;;1.77;1.00;;;;;;;25.77;30.32;95071.31;5037666;28;20029;-44
2020/12/30 06:47:10;;;;;;;1.95;0.95;;;;;;;25.77;30.43;95077.41;5038776;28;20131;-43
2020/12/30 06:49:38;;;;;;;1.58;1.05;;;;;;;25.77;30.37;95074.78;5027677;28;20102;-42
2020/12/30 06:52:24;;;;;;;1.33;0.80;;;;;;;25.74;30.36;95082.88;5037069;28;20065;-44
2020/12/30 06:54:49;;;;;;;1.27;0.90;;;;;;;25.74;30.51;95076.81;5036425;28;20120;-43
2020/12/30 06:57:37;;;;;;;1.25;0.90;;;;;;;25.74;30.50;95080.25;5038626;28;20431;-41
2020/12/30 07:00:31;;;;;;;1.40;0.93;;;;;;;25.73;30.32;95078.59;5035662;28;20369;-42
2020/12/30 07:03:16;;;;;;;1.58;0.93;;;;;;;25.74;30.54;95079.44;5042120;28;20045;-42
2020/12/30 07:05:42;;;;;;;1.83;1.08;;;;;;;25.72;30.65;95084.81;5034902;28;20079;-39
2020/12/30 07:08:08;;;;;;;2.30;0.93;;;;;;;25.73;30.42;95096.97;5044299;28;20072;-42
2020/12/30 07:10:43;;;;;;;1.52;0.93;;;;;;;25.74;30.47;95092.56;5036941;28;20064;-39
2020/12/30 07:13:09;;;;;;;1.58;1.08;;;;;;;25.72;30.49;95103.19;5041242;28;20047;-43
2020/12/30 07:15:34;;;;;;;2.20;1.00;;;;;;;25.72;30.61;95105.78;5035256;28;20037;-43
2020/12/30 07:18:03;;;;;;;1.40;0.80;;;;;;;25.69;30.58;95106.88;5033483;28;20035;-40
2020/12/30 07:20:29;;;;;;;6.63;1.25;;;;;;;25.73;30.44;95114.50;5035813;28;20053;-43
2020/12/30 07:22:54;;;;;;;5.18;1.17;;;;;;;25.71;30.05;95109.38;5045328;28;20095;-43
2020/12/30 07:25:21;;;;;;;5.32;1.17;;;;;;;25.78;29.64;95117.59;5022329;28;20048;-44
2020/12/30 07:27:46;;;;;;;5.90;1.45;;;;;;;25.79;29.49;95116.63;5047915;28;20458;-42
2020/12/30 07:30:12;;;;;;;1.65;1.10;;;;;;;25.82;29.27;95116.41;5041654;28;20055;-40
2020/12/30 07:32:37;;;;;;;6.50;1.20;;;;;;;25.86;29.42;95122.22;5042009;28;20041;-44
2020/12/30 07:35:03;;;;;;;4.63;1.40;;;;;;;25.86;29.41;95127.47;5036488;28;20041;-40
2020/12/30 07:37:28;;;;;;;5.22;1.10;;;;;;;25.88;29.34;95134.28;5037213;28;20045;-41
2020/12/30 07:39:53;;;;;;;6.05;1.15;;;;;;;25.88;29.61;95138.66;5034594;28;20040;-42
2020/12/30 07:42:27;;;;;;;5.50;1.00;;;;;;;25.88;29.69;95144.75;5015233;28;20042;-43
2020/12/30 07:44:56;;;;;;;5.88;0.80;;;;;;;25.86;29.96;95148.47;5029276;28;20029;-40
2020/12/30 07:47:23;;;;;;;3.70;1.00;;;;;;;25.81;30.09;95152.28;5029200;28;20040;-43
2020/12/30 07:49:49;;;;;;;6.32;1.00;;;;;;;25.80;30.16;95158.50;5030977;28;20125;-41
2020/12/30 07:52:14;;;;;;;5.63;2.17;;;;;;;25.80;30.32;95152.41;5035129;28;20492;-43
2020/12/30 07:54:40;;;;;;;3.55;0.90;;;;;;;25.81;30.30;95162.78;5035776;28;20033;-44
2020/12/30 07:57:06;;;;;;;3.00;0.80;;;;;;;25.83;30.27;95165.28;5034907;28;20833;-44
2020/12/30 07:59:31;;;;;;;3.83;0.93;;;;;;;25.82;30.32;95174.94;5037404;28;20044;-42
2020/12/30 08:02:16;;;;;;;3.63;1.10;;;;;;;25.84;30.42;95172.19;5034611;28;20041;-42
2020/12/30 08:04:42;;;;;;;5.03;1.05;;;;;;;25.87;30.41;95165.88;5035352;28;20041;-44
2020/12/30 08:07:09;;;;;;;1.80;0.73;;;;;;;25.87;30.37;95165.88;5035826;28;20102;-43
2020/12/30 08:09:35;;;;;;;3.53;0.70;;;;;;;25.89;30.55;95174.47;5036276;28;20534;-45
2020/12/30 08:12:05;;;;;;;6.38;1.00;;;;;;;25.90;30.34;95178.75;5037094;28;20047;-41
2020/12/30 08:14:31;;;;;;;4.85;1.08;;;;;;;25.91;30.15;95183.03;5034719;28;20487;-42
2020/12/30 08:17:06;;;;;;;1.45;0.90;;;;;;;25.94;30.25;95188.06;5030870;28;20055;-42
2020/12/30 08:19:32;;;;;;;1.85;0.80;;;;;;;25.95;30.02;95180.06;5036006;28;20021;-39
2020/12/30 08:21:59;;;;;;;5.00;0.95;;;;;;;25.96;30.21;95179.09;5037941;28;20115;-39
2020/12/30 08:24:28;;;;;;;2.63;0.77;;;;;;;25.97;30.11;95179.94;5031156;28;20514;-41
2020/12/30 08:26:54;;;;;;;1.20;0.90;;;;;;;25.98;28.57;95186.88;5033578;28;20045;-42
2020/12/30 08:29:19;;;;;;;1.65;0.80;;;;;;;25.82;29.61;95159.19;5033406;28;20498;-42
2020/12/30 08:31:45;;;;;;;3.08;1.10;;;;;;;25.99;30.37;95185.91;5033652;28;20048;-36
2020/12/30 08:34:11;;;;;;;2.83;0.80;;;;;;;26.01;30.51;95183.16;5035100;28;20037;-41
2020/12/30 08:36:39;;;;;;;2.42;0.88;;;;;;;26.02;30.20;95190.06;5031272;28;20059;-40
2020/12/30 08:39:04;;;;;;;1.13;0.80;;;;;;;26.01;30.42;95193.66;5017202;28;20063;-41
2020/12/30 08:41:30;;;;;;;2.10;0.80;;;;;;;26.02;30.36;95190.91;5036986;28;20037;-42
2020/12/30 08:43:56;;;;;;;1.52;0.70;;;;;;;26.03;30.54;95195.19;5035486;28;20036;-40
2020/12/30 08:46:25;;;;;;;1.88;0.65;;;;;;;25.99;30.42;95196.41;5029409;28;20611;-40
2020/12/30 08:48:51;;;;;;;1.10;0.85;;;;;;;25.95;30.55;95194.97;5037477;28;20527;-40
2020/12/30 08:51:25;;;;;;;4.72;0.95;;;;;;;25.95;30.53;95200.22;5036688;28;20044;-38
2020/12/30 08:53:51;;;;;;;2.80;0.80;;;;;;;25.96;30.61;95202.72;5034831;28;20055;-43
2020/12/30 08:56:17;;;;;;;2.25;0.70;;;;;;;25.92;30.27;95201.31;5035243;28;20049;-44
2020/12/30 08:58:53;;;;;;;1.05;0.60;;;;;;;25.93;30.46;95207.41;5035617;28;20029;-44
2020/12/30 09:01:20;;;;;;;13.02;1.20;;;;;;;25.93;27.89;95207.41;5036676;28;20037;-38
2020/12/30 09:03:45;;;;;;;9.68;0.98;;;;;;;25.94;29.83;95214.31;5035602;28;20615;-45
2020/12/30 09:06:23;;;;;;;3.42;0.70;;;;;;;25.94;30.13;95209.88;5035606;28;20056;-41
2020/12/30 09:08:48;;;;;;;3.15;0.90;;;;;;;25.94;30.01;95209.06;5018742;28;20567;-44
2020/12/30 09:11:17;;;;;;;3.15;0.90;;;;;;;25.95;30.07;95226.47;5034997;28;20041;-42
2020/12/30 09:13:43;;;;;;;4.20;2.22;;;;;;;25.68;20.62;95217.19;5046735;28;20070;-43
2020/12/30 09:16:09;;;;;;;2.85;1.98;;;;;;;25.18;19.38;95220.91;5033971;28;20053;-42
2020/12/30 09:18:34;;;;;;;4.53;2.30;;;;;;;24.63;19.39;95230.09;5034478;28;20037;-42
2020/12/30 09:21:00;;;;;;;3.67;2.63;;;;;;;24.12;19.26;95231.97;5033900;28;20047;-36
2020/12/30 09:23:25;;;;;;;5.00;3.58;;;;;;;23.64;19.66;95231.84;5036252;28;20033;-43
2020/12/30 09:25:51;;;;;;;5.10;3.45;;;;;;;23.14;20.35;95235.13;5034128;28;20048;-40
2020/12/30 09:28:18;;;;;;;3.88;2.67;;;;;;;22.69;20.66;95238.91;5035357;28;20714;-43
2020/12/30 09:30:44;;;;;;;4.40;2.40;;;;;;;22.33;21.84;95241.13;5034250;28;20045;-44
2020/12/30 09:33:12;;;;;;;3.50;2.20;;;;;;;22.29;22.99;95239.66;5035020;28;20095;-38
2020/12/30 09:35:38;;;;;;;3.08;1.98;;;;;;;22.37;24.02;95242.63;5036688;28;20040;-39
2020/12/30 09:38:04;;;;;;;2.67;1.95;;;;;;;22.50;24.95;95242.66;5036195;28;20431;-44
2020/12/30 09:40:29;;;;;;;2.28;1.85;;;;;;;22.66;25.45;95241.72;5034268;28;20036;-42
2020/12/30 09:43:12;;;;;;;7.43;2.10;;;;;;;22.73;26.17;95250.00;5033092;28;20043;-43
2020/12/30 09:45:40;;;;;;;2.72;1.60;;;;;;;22.62;27.23;95248.91;5032698;28;20053;-41
2020/12/30 09:48:24;;;;;;;4.75;1.58;;;;;;;22.60;27.38;95248.16;5039777;28;20044;-41
2020/12/30 09:50:50;;;;;;;3.25;1.58;;;;;;;22.70;28.05;95249.22;5039082;28;20040;-46
2020/12/30 09:53:16;;;;;;;3.13;1.63;;;;;;;22.87;28.23;95252.53;5035305;28;20044;-42
2020/12/30 09:55:45;;;;;;;2.30;1.48;;;;;;;23.07;28.24;95255.63;5017619;28;20585;-43
2020/12/30 09:58:10;;;;;;;5.10;1.70;;;;;;;23.28;28.04;95252.50;5025514;28;20512;-43
2020/12/30 10:00:36;;;;;;;1.65;1.23;;;;;;;23.48;28.22;95265.09;5023113;28;20055;-41
2020/12/30 10:03:02;;;;;;;3.65;1.88;;;;;;;23.70;28.19;95258.41;5040685;28;20389;-38
2020/12/30 10:05:28;;;;;;;10.48;1.88;;;;;;;23.89;27.50;95257.13;5040084;28;20037;-44
2020/12/30 10:07:54;;;;;;;7.72;2.08;;;;;;;24.05;27.53;95256.03;5041251;28;20041;-47
2020/12/30 10:10:20;;;;;;;7.60;1.85;;;;;;;24.20;27.81;95257.59;5042455;28;20587;-41
2020/12/30 10:12:46;;;;;;;6.53;2.10;;;;;;;24.33;27.54;95251.50;5041282;28;20067;-42
2020/12/30 10:15:11;;;;;;;6.00;2.10;;;;;;;24.45;27.51;95249.78;5038512;28;20096;-40
2020/12/30 10:17:37;;;;;;;5.47;1.90;;;;;;;24.56;27.39;95260.28;5042124;28;20048;-39
2020/12/30 10:20:03;;;;;;;4.45;1.90;;;;;;;24.65;27.45;95250.94;5048893;28;21454;-41
2020/12/30 10:22:31;;;;;;;3.13;1.63;;;;;;;24.75;27.62;95254.56;5035090;28;20067;-40
2020/12/30 10:24:56;;;;;;;6.93;2.40;;;;;;;24.80;27.50;95252.44;5039879;28;20123;-42
2020/12/30 10:27:22;;;;;;;6.93;1.80;;;;;;;24.89;27.49;95250.97;5051757;28;20670;-40
2020/12/30 10:29:47;;;;;;;5.80;2.00;;;;;;;24.94;27.42;95249.78;5042915;28;20130;-42
2020/12/30 10:32:13;;;;;;;7.00;1.95;;;;;;;25.00;27.38;95250.16;5028094;28;20044;-43
2020/12/30 10:34:38;;;;;;;3.58;1.95;;;;;;;25.08;27.64;95259.22;5025841;28;20071;-42
2020/12/30 10:37:04;;;;;;;3.33;1.80;;;;;;;25.15;27.67;95260.44;5020892;28;20037;-42
2020/12/30 10:39:30;;;;;;;2.40;1.67;;;;;;;25.16;27.41;95259.50;5010532;28;20071;-43
2020/12/30 10:41:56;;;;;;;7.22;1.73;;;;;;;25.20;27.52;95255.69;5037890;28;20041;-43
2020/12/30 10:44:22;;;;;;;5.07;1.92;;;;;;;25.25;27.44;95266.66;5021943;28;20087;-41
2020/12/30 10:46:47;;;;;;;7.80;1.73;;;;;;;25.24;27.71;95259.75;5022327;28;20492;-40
2020/12/30 10:49:13;;;;;;;3.17;1.58;;;;;;;25.30;27.72;95269.81;5024919;28;20056;-43
2020/12/30 10:51:39;;;;;;;3.30;1.83;;;;;;;25.34;27.56;95269.56;5025267;28;20068;-42
2020/12/30 10:54:05;;;;;;;3.63;1.40;;;;;;;25.37;27.63;95266.72;5022752;28;20455;-45
2020/12/30 10:56:31;;;;;;;5.55;1.60;;;;;;;25.39;27.62;95267.41;5017524;28;20034;-45
2020/12/30 10:58:56;;;;;;;4.18;1.58;;;;;;;25.42;27.70;95267.19;5026564;28;20068;-42
2020/12/30 11:01:22;;;;;;;3.15;1.50;;;;;;;25.42;27.77;95261.94;5022748;28;20769;-41
2020/12/30 11:03:48;;;;;;;4.22;1.48;;;;;;;25.46;27.69;95266.00;5027430;28;20033;-42
2020/12/30 11:06:13;;;;;;;3.47;1.60;;;;;;;25.46;27.83;95276.50;5018780;28;20128;-40
2020/12/30 11:08:39;;;;;;;2.70;1.42;;;;;;;25.47;27.96;95275.53;5026336;28;20591;-42
2020/12/30 11:11:05;;;;;;;3.08;1.40;;;;;;;25.48;27.95;95272.00;5023229;28;20436;-41
2020/12/30 11:13:30;;;;;;;3.25;1.50;;;;;;;25.49;28.13;95275.44;5024907;28;20588;-42
2020/12/30 11:15:56;;;;;;;3.35;1.50;;;;;;;25.53;27.98;95276.88;5024709;28;20653;-43
2020/12/30 11:18:21;;;;;;;2.08;1.30;;;;;;;25.50;28.29;95264.81;5046983;28;20526;-44
2020/12/30 11:20:47;;;;;;;2.17;1.27;;;;;;;25.55;28.11;95270.53;5043945;28;20052;-39
2020/12/30 11:23:12;;;;;;;2.60;1.45;;;;;;;25.55;27.97;95267.94;5048497;28;20407;-41
2020/12/30 11:25:40;;;;;;;3.33;1.60;;;;;;;25.56;28.15;95269.63;5044426;28;20033;-42
2020/12/30 11:28:06;;;;;;;3.15;1.60;;;;;;;25.56;28.23;95264.38;5064799;28;20553;-43
2020/12/30 11:30:31;;;;;;;3.70;1.40;;;;;;;25.62;28.38;95273.56;5043500;28;20040;-43
2020/12/30 11:32:57;;;;;;;6.00;1.50;;;;;;;25.64;27.26;95270.84;5034359;28;21181;-43
2020/12/30 11:35:23;;;;;;;3.72;1.67;;;;;;;25.63;27.92;95270.00;5047439;28;20049;-39